ジュノー の空港の天気 - METARとTAF

ジュノー国際空港 ( PAJN / JNU ) - アメリカ アラスカ州ジュノー
飛行場実況気象(Metar)
観測時間11/26 23:53 AKST (11/27 08:53 UTC)
風向・風速西 2m/s
視程10km以上
天気現象
少しの雲 雲底高度 30m
少しの雲 雲底高度 150m
全天の4割程度の雲 雲底高度 2440m
気温-3.3℃
湿度100%
気圧1014.7hPa
METARPAJN 270853Z 27003KT 10SM FEW001 FEW005 SCT080 M03/M03 A2996 RMK AO2 SLP147 I1000 I3001 T10331033 400221039 51022 $
過去の天気等 Google飛行場航空写真 Wunderground天気予報

過去48時間のMETAR

飛行場予報(TAF)
発表時間: 11/26 20:28 AKST (11/27 05:28 UTC)
予報対象時間: 26日21時 AKST ~ 27日21時 AKST
風向・風速不定 2m/s
視程10km以上
少しの雲 雲底高度 90m
全天の4割程度の雲 雲底高度 760m
全天の4割程度の雲 雲底高度 1220m
26日21時 AKST ~ 27日1時 AKST に一時的に
少しの雲 雲底高度 90m
全天の8割程度の雲 雲底高度 610m
全天の8割程度の雲 雲底高度 1220m
27日9時 AKST から
風向・風速東 3m/s
視程10km以上
なし
PAJN 270528Z 2706/2806 VRB03KT P6SM FEW003 SCT025 SCT040
TEMPO 2706/2710 FEW003 BKN020 BKN040
FM271800 08005KT P6SM SKC